createdAt,value
2023-04-30T00:01:03.698Z,4.94
2023-04-30T00:02:07.962Z,4.91
2023-04-30T00:03:12.262Z,4.90
2023-04-30T00:04:16.423Z,4.91
2023-04-30T00:05:20.678Z,4.93
2023-04-30T00:06:28.092Z,4.96
2023-04-30T00:07:29.187Z,4.93
2023-04-30T00:08:33.399Z,4.91
2023-04-30T00:09:37.644Z,4.87
2023-04-30T00:10:41.894Z,4.84
2023-04-30T00:11:46.192Z,4.79
2023-04-30T00:12:50.392Z,4.78
2023-04-30T00:13:54.608Z,4.76
2023-04-30T00:14:58.818Z,4.73
2023-04-30T00:16:03.078Z,4.71
2023-04-30T00:17:07.326Z,4.71
2023-04-30T00:18:11.595Z,4.72
2023-04-30T00:19:15.753Z,4.74
2023-04-30T00:20:20.060Z,4.75
2023-04-30T00:21:24.269Z,4.75
2023-04-30T00:22:28.583Z,4.73
2023-04-30T00:23:32.787Z,4.74
2023-04-30T00:24:37.065Z,4.75
2023-04-30T00:25:41.328Z,4.75
2023-04-30T00:26:45.545Z,4.77
2023-04-30T00:27:49.832Z,4.75
2023-04-30T00:28:54.058Z,4.75
2023-04-30T00:29:58.316Z,4.74
2023-04-30T00:31:02.479Z,4.71
2023-04-30T00:32:06.859Z,4.68
2023-04-30T00:33:11.003Z,4.65
2023-04-30T00:34:15.239Z,4.64
2023-04-30T00:35:19.414Z,4.63
2023-04-30T00:36:23.871Z,4.64
2023-04-30T00:37:28.290Z,4.66
2023-04-30T00:38:32.472Z,4.65
2023-04-30T00:39:36.772Z,4.63
2023-04-30T00:40:54.960Z,4.63
2023-04-30T00:41:58.027Z,4.62
2023-04-30T00:43:02.247Z,4.64
2023-04-30T00:44:06.427Z,4.63
2023-04-30T00:45:10.520Z,4.62
2023-04-30T00:46:14.865Z,4.61
2023-04-30T00:47:19.105Z,4.62
2023-04-30T00:48:23.324Z,4.60
2023-04-30T00:49:27.577Z,4.57
2023-04-30T00:50:31.844Z,4.56
2023-04-30T00:51:36.051Z,4.56
2023-04-30T00:52:40.337Z,4.55
2023-04-30T00:53:44.639Z,4.54
2023-04-30T00:54:49.013Z,4.55
2023-04-30T00:55:53.058Z,4.56
2023-04-30T00:56:57.264Z,4.57
2023-04-30T00:58:01.607Z,4.55
2023-04-30T00:59:05.745Z,4.54
2023-04-30T01:00:16.018Z,4.54
2023-04-30T01:01:19.003Z,4.57
2023-04-30T01:02:23.161Z,4.59
2023-04-30T01:03:27.420Z,4.58
2023-04-30T01:04:31.590Z,4.58
2023-04-30T01:05:35.740Z,4.59
2023-04-30T01:06:40.141Z,4.59
2023-04-30T01:07:44.236Z,4.58
2023-04-30T01:08:48.540Z,4.58
2023-04-30T01:09:53.040Z,4.57
2023-04-30T01:10:57.047Z,4.58
2023-04-30T01:12:01.215Z,4.58
2023-04-30T01:13:05.483Z,4.57
2023-04-30T01:14:09.678Z,4.57
2023-04-30T01:15:13.992Z,4.56
2023-04-30T01:16:18.242Z,4.54
2023-04-30T01:17:22.411Z,4.53
2023-04-30T01:18:26.718Z,4.53
2023-04-30T01:19:30.846Z,4.52
2023-04-30T01:20:35.165Z,4.51
2023-04-30T01:21:39.462Z,4.52
2023-04-30T01:22:43.730Z,4.51
2023-04-30T01:23:47.895Z,4.50
2023-04-30T01:24:52.121Z,4.48
2023-04-30T01:25:56.432Z,4.44
2023-04-30T01:27:00.616Z,4.41
2023-04-30T01:28:04.836Z,4.42
2023-04-30T01:29:09.085Z,4.42
2023-04-30T01:30:13.298Z,4.45
2023-04-30T01:31:17.617Z,4.45
2023-04-30T01:32:21.758Z,4.47
2023-04-30T01:33:26.083Z,4.49
2023-04-30T01:34:30.447Z,4.50
2023-04-30T01:35:34.668Z,4.49
2023-04-30T01:36:38.982Z,4.48
2023-04-30T01:37:43.148Z,4.49
2023-04-30T01:38:47.449Z,4.48
2023-04-30T01:39:55.097Z,4.46
2023-04-30T01:40:57.975Z,4.43
2023-04-30T01:42:02.403Z,4.41
2023-04-30T01:43:06.564Z,4.38
2023-04-30T01:44:10.830Z,4.33
2023-04-30T01:45:14.999Z,4.29
2023-04-30T01:46:19.333Z,4.29
2023-04-30T01:47:23.568Z,4.27
2023-04-30T01:48:27.912Z,4.27
2023-04-30T01:49:32.132Z,4.28
2023-04-30T01:50:36.462Z,4.27
2023-04-30T01:51:54.689Z,4.26
2023-04-30T01:52:57.865Z,4.23
2023-04-30T01:54:02.012Z,4.21
2023-04-30T01:55:06.227Z,4.20
2023-04-30T01:56:10.472Z,4.19
2023-04-30T01:57:14.757Z,4.17
2023-04-30T01:58:18.827Z,4.16
2023-04-30T01:59:23.100Z,4.13
2023-04-30T02:00:27.296Z,4.10
2023-04-30T02:01:31.648Z,4.08
2023-04-30T02:02:35.799Z,4.07
2023-04-30T02:03:40.027Z,4.06
2023-04-30T02:04:44.130Z,4.05
2023-04-30T02:05:48.416Z,4.03
2023-04-30T02:06:52.640Z,3.99
2023-04-30T02:07:56.864Z,3.93
2023-04-30T02:09:01.038Z,3.83
2023-04-30T02:10:05.325Z,3.75
2023-04-30T02:11:09.592Z,3.69
2023-04-30T02:12:13.765Z,3.62
2023-04-30T02:13:18.059Z,3.61
2023-04-30T02:14:22.226Z,3.61
2023-04-30T02:15:26.468Z,3.62
2023-04-30T02:16:30.746Z,3.63
2023-04-30T02:17:34.936Z,3.63
2023-04-30T02:18:39.212Z,3.65
2023-04-30T02:19:43.400Z,3.65
2023-04-30T02:20:47.682Z,3.66
2023-04-30T02:21:51.841Z,3.63
2023-04-30T02:22:56.006Z,3.61
2023-04-30T02:24:00.366Z,3.58
2023-04-30T02:25:04.775Z,3.57
2023-04-30T02:26:08.906Z,3.55
2023-04-30T02:27:13.006Z,3.54
2023-04-30T02:28:17.283Z,3.53
2023-04-30T02:29:21.616Z,3.51
2023-04-30T02:30:25.752Z,3.50
2023-04-30T02:31:29.873Z,3.50
2023-04-30T02:32:34.207Z,3.49
2023-04-30T02:33:38.418Z,3.48
2023-04-30T02:34:42.742Z,3.46
2023-04-30T02:35:46.971Z,3.46
2023-04-30T02:36:51.061Z,3.47
2023-04-30T02:37:55.315Z,3.49
2023-04-30T02:38:59.564Z,3.49
2023-04-30T02:40:03.868Z,3.48
2023-04-30T02:41:08.114Z,3.49
2023-04-30T02:42:12.347Z,3.47
2023-04-30T02:43:16.556Z,3.47
2023-04-30T02:44:20.828Z,3.46
2023-04-30T02:45:25.141Z,3.45
2023-04-30T02:46:29.287Z,3.44
2023-04-30T02:47:33.607Z,3.41
2023-04-30T02:48:37.835Z,3.39
2023-04-30T02:49:42.036Z,3.37
2023-04-30T02:50:46.280Z,3.37
2023-04-30T02:51:50.687Z,3.36
2023-04-30T02:52:54.830Z,3.36
2023-04-30T02:53:59.104Z,3.36
2023-04-30T02:55:03.383Z,3.35
2023-04-30T02:56:07.590Z,3.35
2023-04-30T02:57:11.872Z,3.34
2023-04-30T02:58:16.141Z,3.33
2023-04-30T02:59:20.316Z,3.32
2023-04-30T03:00:24.620Z,3.31
2023-04-30T03:01:28.944Z,3.28
2023-04-30T03:02:33.338Z,3.26
2023-04-30T03:03:37.375Z,3.24
2023-04-30T03:04:41.596Z,3.24
2023-04-30T03:05:48.800Z,3.22
2023-04-30T03:06:52.094Z,3.21
2023-04-30T03:07:56.314Z,3.19
2023-04-30T03:09:00.625Z,3.20
2023-04-30T03:10:04.895Z,3.17
2023-04-30T03:11:09.032Z,3.16
2023-04-30T03:12:13.264Z,3.15
2023-04-30T03:13:17.487Z,3.14
2023-04-30T03:14:21.727Z,3.11
2023-04-30T03:15:26.024Z,3.07
2023-04-30T03:16:30.231Z,3.03
2023-04-30T03:17:34.474Z,3.01
2023-04-30T03:18:38.644Z,2.99
2023-04-30T03:19:42.880Z,2.99
2023-04-30T03:20:47.040Z,2.98
2023-04-30T03:21:51.278Z,2.98
2023-04-30T03:22:55.643Z,2.97
2023-04-30T03:23:59.859Z,2.98
2023-04-30T03:25:04.029Z,2.97
2023-04-30T03:26:08.230Z,2.96
2023-04-30T03:27:12.455Z,2.93
2023-04-30T03:28:16.567Z,2.90
2023-04-30T03:29:20.968Z,2.86
2023-04-30T03:30:25.168Z,2.82
2023-04-30T03:31:29.397Z,2.79
2023-04-30T03:32:33.558Z,2.77
2023-04-30T03:33:37.833Z,2.74
2023-04-30T03:34:41.966Z,2.73
2023-04-30T03:35:46.273Z,2.74
2023-04-30T03:36:50.534Z,2.75
2023-04-30T03:37:54.678Z,2.75
2023-04-30T03:38:58.899Z,2.77
2023-04-30T03:40:03.153Z,2.78
2023-04-30T03:41:07.363Z,2.79
2023-04-30T03:42:11.534Z,2.80
2023-04-30T03:43:15.785Z,2.81
2023-04-30T03:44:20.091Z,2.82
2023-04-30T03:45:24.321Z,2.82
2023-04-30T03:46:28.623Z,2.83
2023-04-30T03:47:35.749Z,2.82
2023-04-30T03:48:39.007Z,2.82
2023-04-30T03:49:43.213Z,2.81
2023-04-30T03:50:47.341Z,2.79
2023-04-30T03:51:51.584Z,2.79
2023-04-30T03:52:55.793Z,2.77
2023-04-30T03:53:59.978Z,2.76
2023-04-30T03:55:04.199Z,2.74
2023-04-30T03:56:08.407Z,2.73
2023-04-30T03:57:12.611Z,2.74
2023-04-30T03:58:16.828Z,2.74
2023-04-30T03:59:21.106Z,2.74
2023-04-30T04:00:25.310Z,2.73
2023-04-30T04:01:29.617Z,2.75
2023-04-30T04:02:47.950Z,2.74
2023-04-30T04:03:51.151Z,2.75
2023-04-30T04:04:55.292Z,2.76
2023-04-30T04:05:59.508Z,2.77
2023-04-30T04:07:03.646Z,2.79
2023-04-30T04:08:13.943Z,2.80
2023-04-30T04:09:16.716Z,2.82
2023-04-30T04:10:20.861Z,2.83
2023-04-30T04:11:25.153Z,2.85
2023-04-30T04:12:29.311Z,2.85
2023-04-30T04:13:33.573Z,2.86
2023-04-30T04:14:37.792Z,2.86
2023-04-30T04:15:42.152Z,2.84
2023-04-30T04:16:46.402Z,2.84
2023-04-30T04:17:50.661Z,2.83
2023-04-30T04:18:54.964Z,2.83
2023-04-30T04:19:59.229Z,2.85
2023-04-30T04:21:03.458Z,2.86
2023-04-30T04:22:07.650Z,2.86
2023-04-30T04:23:11.948Z,2.89
2023-04-30T04:24:16.112Z,2.91
2023-04-30T04:25:20.385Z,2.93
2023-04-30T04:26:24.638Z,2.93
2023-04-30T04:27:28.898Z,2.95
2023-04-30T04:28:33.186Z,2.95
2023-04-30T04:29:37.344Z,2.96
2023-04-30T04:30:41.565Z,2.94
2023-04-30T04:31:45.903Z,2.92
2023-04-30T04:32:50.059Z,2.90
2023-04-30T04:33:54.445Z,2.89
2023-04-30T04:34:58.626Z,2.87
2023-04-30T04:36:02.834Z,2.86
2023-04-30T04:37:07.036Z,2.86
2023-04-30T04:38:11.228Z,2.87
2023-04-30T04:39:15.604Z,2.90
2023-04-30T04:40:19.815Z,2.94
2023-04-30T04:41:24.232Z,2.99
2023-04-30T04:42:28.358Z,3.02
2023-04-30T04:43:32.691Z,3.06
2023-04-30T04:44:36.853Z,3.09
2023-04-30T04:45:41.153Z,3.11
2023-04-30T04:46:45.478Z,3.14
2023-04-30T04:47:49.633Z,3.18
2023-04-30T04:48:53.907Z,3.18
2023-04-30T04:49:58.090Z,3.18
2023-04-30T04:51:02.331Z,3.19
2023-04-30T04:52:06.555Z,3.20
2023-04-30T04:53:10.724Z,3.22
2023-04-30T04:54:15.054Z,3.18
2023-04-30T04:55:19.290Z,3.18
2023-04-30T04:56:23.469Z,3.17
2023-04-30T04:57:27.672Z,3.20
2023-04-30T04:58:31.858Z,3.22
2023-04-30T04:59:36.231Z,3.23
2023-04-30T05:00:40.417Z,3.24
2023-04-30T05:01:44.688Z,3.26
2023-04-30T05:02:48.949Z,3.28
2023-04-30T05:03:53.217Z,3.29
2023-04-30T05:04:57.351Z,3.32
2023-04-30T05:06:01.607Z,3.35
2023-04-30T05:07:05.780Z,3.41
2023-04-30T05:08:10.096Z,3.46
2023-04-30T05:09:14.249Z,3.51
2023-04-30T05:10:18.453Z,3.56
2023-04-30T05:11:22.821Z,3.62
2023-04-30T05:12:26.981Z,3.66
2023-04-30T05:13:31.369Z,3.72
2023-04-30T05:14:35.512Z,3.77
2023-04-30T05:15:39.897Z,3.79
2023-04-30T05:16:44.087Z,3.81
2023-04-30T05:17:48.386Z,3.81
2023-04-30T05:18:52.635Z,3.80
2023-04-30T05:19:57.263Z,3.82
2023-04-30T05:21:01.118Z,3.85
2023-04-30T05:22:05.423Z,3.89
2023-04-30T05:23:09.775Z,3.94
2023-04-30T05:24:13.950Z,4.00
2023-04-30T05:25:18.214Z,4.04
2023-04-30T05:26:22.502Z,4.10
2023-04-30T05:27:26.736Z,4.15
2023-04-30T05:28:30.995Z,4.17
2023-04-30T05:29:35.305Z,4.20
2023-04-30T05:30:39.497Z,4.25
2023-04-30T05:31:43.878Z,4.30
2023-04-30T05:32:47.980Z,4.35
2023-04-30T05:33:52.223Z,4.40
2023-04-30T05:34:56.460Z,4.46
2023-04-30T05:36:00.774Z,4.52
2023-04-30T05:37:04.982Z,4.59
2023-04-30T05:38:09.243Z,4.67
2023-04-30T05:39:13.600Z,4.73
2023-04-30T05:40:17.897Z,4.79
2023-04-30T05:41:22.060Z,4.85
2023-04-30T05:42:26.355Z,4.87
2023-04-30T05:43:30.602Z,4.85
2023-04-30T05:44:34.935Z,4.83
2023-04-30T05:45:39.160Z,4.83
2023-04-30T05:46:43.397Z,4.82
2023-04-30T05:47:47.732Z,4.77
2023-04-30T05:48:52.065Z,4.76
2023-04-30T05:49:56.548Z,4.77
2023-04-30T05:51:00.585Z,4.80
2023-04-30T05:52:04.781Z,4.82
2023-04-30T05:53:09.085Z,4.86
2023-04-30T05:54:13.298Z,4.91
2023-04-30T05:55:17.657Z,5.02
2023-04-30T05:56:21.880Z,5.13
2023-04-30T05:57:26.181Z,5.22
2023-04-30T05:58:30.371Z,5.30
2023-04-30T05:59:34.660Z,5.38
2023-04-30T06:00:39.045Z,5.45
2023-04-30T06:01:43.359Z,5.52
2023-04-30T06:02:47.670Z,5.59
2023-04-30T06:03:51.862Z,5.67
2023-04-30T06:04:56.208Z,5.74
2023-04-30T06:06:00.553Z,5.79
2023-04-30T06:07:04.561Z,5.81
2023-04-30T06:08:08.837Z,5.84
2023-04-30T06:09:12.973Z,5.92
2023-04-30T06:10:17.352Z,5.97
2023-04-30T06:11:21.576Z,5.95
2023-04-30T06:12:25.961Z,5.93
2023-04-30T06:13:30.235Z,5.95
2023-04-30T06:14:34.632Z,5.93
2023-04-30T06:15:38.785Z,5.95
2023-04-30T06:16:43.037Z,5.96
2023-04-30T06:17:47.254Z,6.00
2023-04-30T06:18:53.576Z,6.06
2023-04-30T06:19:56.223Z,6.13
2023-04-30T06:21:00.194Z,6.20
2023-04-30T06:22:04.435Z,6.13
2023-04-30T06:23:08.751Z,6.15
2023-04-30T06:24:12.905Z,6.22
2023-04-30T06:25:23.327Z,6.30
2023-04-30T06:26:26.067Z,6.31
2023-04-30T06:27:36.278Z,6.39
2023-04-30T06:28:39.133Z,6.39
2023-04-30T06:29:43.430Z,6.34
2023-04-30T06:30:47.767Z,6.24
2023-04-30T06:31:52.101Z,6.01
2023-04-30T06:32:56.355Z,5.89
2023-04-30T06:34:00.468Z,5.92
2023-04-30T06:35:04.766Z,6.00
2023-04-30T06:36:09.023Z,6.13
2023-04-30T06:37:13.192Z,6.23
2023-04-30T06:38:17.583Z,6.29
2023-04-30T06:39:21.811Z,6.36
2023-04-30T06:40:26.238Z,6.39
2023-04-30T06:41:30.374Z,6.37
2023-04-30T06:42:34.741Z,6.37
2023-04-30T06:43:39.044Z,6.39
2023-04-30T06:44:43.215Z,6.33
2023-04-30T06:45:47.542Z,6.26
2023-04-30T06:46:51.745Z,6.13
2023-04-30T06:47:56.086Z,6.02
2023-04-30T06:49:00.358Z,6.00
2023-04-30T06:50:04.570Z,5.96
2023-04-30T06:51:10.474Z,5.92
2023-04-30T06:52:13.217Z,5.87
2023-04-30T06:53:20.552Z,5.80
2023-04-30T06:54:26.945Z,5.68
2023-04-30T06:55:30.269Z,5.67
2023-04-30T06:56:34.546Z,5.65
2023-04-30T06:57:38.758Z,5.63
2023-04-30T06:58:43.048Z,5.49
2023-04-30T06:59:47.233Z,5.42
2023-04-30T07:00:51.453Z,5.36
2023-04-30T07:01:55.865Z,5.40
2023-04-30T07:03:00.005Z,5.49
2023-04-30T07:04:04.195Z,5.59
2023-04-30T07:05:08.434Z,5.67
2023-04-30T07:06:12.728Z,5.62
2023-04-30T07:07:20.053Z,5.56
2023-04-30T07:08:23.396Z,5.61
2023-04-30T07:09:27.603Z,5.74
2023-04-30T07:10:31.880Z,5.84
2023-04-30T07:11:36.196Z,5.96
2023-04-30T07:12:40.452Z,6.15
2023-04-30T07:13:44.731Z,6.19
2023-04-30T07:14:49.030Z,6.17
2023-04-30T07:15:53.412Z,6.25
2023-04-30T07:16:57.609Z,6.19
2023-04-30T07:18:01.907Z,5.95
2023-04-30T07:19:06.232Z,5.72
2023-04-30T07:20:10.540Z,5.61
2023-04-30T07:21:14.838Z,5.62
2023-04-30T07:22:19.085Z,5.61
2023-04-30T07:23:23.304Z,5.51
2023-04-30T07:24:27.417Z,5.47
2023-04-30T07:25:35.045Z,5.41
2023-04-30T07:26:38.388Z,5.39
2023-04-30T07:27:42.558Z,5.39
2023-04-30T07:28:46.916Z,5.36
2023-04-30T07:29:51.130Z,5.33
2023-04-30T07:30:58.367Z,5.31
2023-04-30T07:32:01.965Z,5.34
2023-04-30T07:33:05.990Z,5.28
2023-04-30T07:34:13.307Z,5.17
2023-04-30T07:35:16.559Z,5.15
2023-04-30T07:36:20.819Z,5.15
2023-04-30T07:37:25.024Z,5.22
2023-04-30T07:38:29.392Z,5.36
2023-04-30T07:39:33.592Z,5.44
2023-04-30T07:40:37.923Z,5.49
2023-04-30T07:41:42.116Z,5.43
2023-04-30T07:42:46.291Z,5.49
2023-04-30T07:43:50.568Z,5.53
2023-04-30T07:44:54.837Z,5.53
2023-04-30T07:45:59.096Z,5.62
2023-04-30T07:47:03.392Z,5.66
2023-04-30T07:48:10.646Z,5.65
2023-04-30T07:49:13.969Z,5.54
2023-04-30T07:50:18.371Z,5.34
2023-04-30T07:51:22.576Z,5.29
2023-04-30T07:52:26.793Z,4.98
2023-04-30T07:53:31.057Z,4.80
2023-04-30T07:54:38.446Z,4.81
2023-04-30T07:55:41.764Z,4.84
2023-04-30T07:56:46.105Z,4.89
2023-04-30T07:57:50.298Z,4.99
2023-04-30T07:58:54.592Z,5.15
2023-04-30T07:59:59.107Z,5.29
2023-04-30T08:01:03.154Z,5.33
2023-04-30T08:02:07.441Z,5.27
2023-04-30T08:03:11.868Z,5.10
2023-04-30T08:04:16.046Z,5.02
2023-04-30T08:05:20.286Z,4.94
2023-04-30T08:06:24.709Z,4.88
2023-04-30T08:07:28.807Z,4.88
2023-04-30T08:08:33.087Z,4.67
2023-04-30T08:09:37.352Z,4.66
2023-04-30T08:10:41.723Z,4.77
2023-04-30T08:11:46.015Z,4.96
2023-04-30T08:12:50.227Z,5.01
2023-04-30T08:13:54.522Z,4.89
2023-04-30T08:14:58.857Z,4.86
2023-04-30T08:16:03.145Z,4.83
2023-04-30T08:17:07.410Z,4.74
2023-04-30T08:18:11.683Z,4.82
2023-04-30T08:19:15.998Z,4.84
2023-04-30T08:20:20.240Z,4.97
2023-04-30T08:21:24.462Z,5.04
2023-04-30T08:22:28.828Z,5.12
2023-04-30T08:23:39.048Z,5.17
2023-04-30T08:24:41.925Z,5.18
2023-04-30T08:25:46.269Z,5.19
2023-04-30T08:26:50.956Z,5.13
2023-04-30T08:27:54.752Z,4.97
2023-04-30T08:28:59.107Z,4.92
2023-04-30T08:30:03.404Z,4.93
2023-04-30T08:31:07.740Z,5.14
2023-04-30T08:32:11.956Z,5.15
2023-04-30T08:33:16.383Z,5.13
2023-04-30T08:34:20.493Z,5.09
2023-04-30T08:35:24.921Z,5.19
2023-04-30T08:36:29.138Z,5.10
2023-04-30T08:37:33.468Z,5.05
2023-04-30T08:38:37.705Z,4.95
2023-04-30T08:39:41.926Z,5.04
2023-04-30T08:40:51.544Z,5.12
2023-04-30T08:41:50.507Z,5.18
2023-04-30T08:42:54.842Z,5.28
2023-04-30T08:43:59.087Z,5.35
2023-04-30T08:45:03.353Z,5.38
2023-04-30T08:46:07.748Z,5.31
2023-04-30T08:47:11.906Z,5.06
2023-04-30T08:48:16.505Z,4.98
2023-04-30T08:49:20.927Z,4.91
2023-04-30T08:50:24.878Z,4.97
2023-04-30T08:51:29.105Z,5.07
2023-04-30T08:52:33.381Z,5.12
2023-04-30T08:53:37.798Z,5.08
2023-04-30T08:54:41.998Z,4.97
2023-04-30T08:55:46.291Z,4.98
2023-04-30T08:56:50.525Z,5.07
2023-04-30T08:57:54.874Z,5.25
2023-04-30T08:58:59.134Z,5.39
2023-04-30T09:00:03.412Z,5.61
2023-04-30T09:01:07.825Z,5.70
2023-04-30T09:02:12.101Z,5.71
2023-04-30T09:03:16.353Z,5.72
2023-04-30T09:04:20.523Z,5.71
2023-04-30T09:05:24.869Z,5.63
2023-04-30T09:06:29.162Z,5.65
2023-04-30T09:08:50.592Z,5.67
2023-04-30T09:09:55.160Z,5.58
2023-04-30T09:10:59.174Z,5.59
2023-04-30T09:12:03.423Z,5.60
2023-04-30T09:13:07.720Z,5.55
2023-04-30T09:14:11.992Z,5.64
2023-04-30T09:15:16.334Z,5.76
2023-04-30T09:16:20.729Z,5.89
2023-04-30T09:17:24.927Z,5.91
2023-04-30T09:18:29.222Z,5.94
2023-04-30T09:19:33.618Z,5.94
2023-04-30T09:20:51.957Z,5.80
2023-04-30T09:21:55.066Z,5.54
2023-04-30T09:22:59.660Z,5.41
2023-04-30T09:24:03.681Z,5.47
2023-04-30T09:25:08.078Z,5.53
2023-04-30T09:26:12.399Z,5.45
2023-04-30T09:27:16.647Z,5.47
2023-04-30T09:28:20.989Z,5.67
2023-04-30T09:29:25.227Z,5.72
2023-04-30T09:30:29.516Z,5.72
2023-04-30T09:31:33.924Z,5.74
2023-04-30T09:32:38.212Z,5.63
2023-04-30T09:33:42.473Z,5.44
2023-04-30T09:34:46.776Z,5.34
2023-04-30T09:35:51.064Z,5.11
2023-04-30T09:36:55.428Z,4.87
2023-04-30T09:37:59.658Z,4.95
2023-04-30T09:39:04.008Z,5.15
2023-04-30T09:40:08.279Z,5.36
2023-04-30T09:41:12.757Z,5.49
2023-04-30T09:42:16.997Z,5.61
2023-04-30T09:43:21.278Z,5.69
2023-04-30T09:44:25.633Z,5.77
2023-04-30T09:45:31.172Z,5.79
2023-04-30T09:46:34.222Z,5.79
2023-04-30T09:47:38.613Z,5.64
2023-04-30T09:48:42.787Z,5.54
2023-04-30T09:49:47.187Z,5.48
2023-04-30T09:50:51.420Z,5.46
2023-04-30T09:51:55.705Z,5.39
2023-04-30T09:52:59.944Z,5.37
2023-04-30T09:54:04.215Z,5.38
2023-04-30T09:55:08.493Z,5.41
2023-04-30T09:56:12.764Z,5.44
2023-04-30T09:57:17.223Z,5.51
2023-04-30T09:58:21.570Z,5.56
2023-04-30T09:59:25.759Z,5.59
2023-04-30T10:00:30.178Z,5.53
2023-04-30T10:01:34.330Z,5.60
2023-04-30T10:02:38.698Z,5.57
2023-04-30T10:03:43.022Z,5.70
2023-04-30T10:04:47.289Z,5.81
2023-04-30T10:05:51.678Z,5.79
2023-04-30T10:06:55.848Z,5.79
2023-04-30T10:08:00.144Z,5.76
2023-04-30T10:09:07.564Z,5.75
2023-04-30T10:10:11.051Z,5.81
2023-04-30T10:11:15.414Z,5.88
2023-04-30T10:12:19.880Z,5.94
2023-04-30T10:13:24.058Z,6.07
2023-04-30T10:14:28.244Z,6.25
2023-04-30T10:15:32.716Z,6.28
2023-04-30T10:16:42.285Z,6.16
2023-04-30T10:17:45.321Z,6.03
2023-04-30T10:18:49.465Z,6.01
2023-04-30T10:19:54.039Z,6.04
2023-04-30T10:20:58.217Z,5.96
2023-04-30T10:22:02.553Z,5.94
2023-04-30T10:23:19.096Z,5.89
2023-04-30T10:28:39.837Z,6.08
2023-04-30T10:29:43.978Z,6.15
2023-04-30T10:35:10.118Z,5.70
2023-04-30T10:36:19.431Z,5.65
2023-04-30T10:37:22.166Z,5.73
2023-04-30T10:38:26.444Z,5.82
2023-04-30T10:39:30.741Z,5.86
2023-04-30T10:40:34.980Z,5.97
2023-04-30T10:43:05.551Z,5.93
2023-04-30T10:44:10.136Z,6.02
2023-04-30T10:45:14.256Z,6.16
2023-04-30T10:46:32.667Z,6.22
2023-04-30T10:47:35.721Z,6.13
2023-04-30T10:48:42.771Z,6.01
2023-04-30T10:49:46.105Z,5.87
2023-04-30T10:50:56.701Z,5.72
2023-04-30T10:52:03.972Z,5.67
2023-04-30T10:53:07.114Z,5.59
2023-04-30T10:54:11.353Z,5.47
2023-04-30T10:55:15.629Z,5.56
2023-04-30T10:56:19.882Z,5.65
2023-04-30T10:57:25.182Z,5.84
2023-04-30T10:58:29.096Z,6.02
2023-04-30T10:59:33.358Z,6.21
2023-04-30T11:00:37.644Z,6.30
2023-04-30T11:01:42.089Z,6.28
2023-04-30T11:02:46.313Z,6.29
2023-04-30T11:03:50.644Z,6.39
2023-04-30T11:04:54.968Z,6.47
2023-04-30T11:05:59.283Z,6.47
2023-04-30T11:07:03.503Z,6.38
2023-04-30T11:08:07.801Z,6.04
2023-04-30T11:09:12.138Z,5.82
2023-04-30T11:10:16.436Z,5.65
2023-04-30T11:11:20.767Z,5.58
2023-04-30T11:12:28.000Z,5.63
2023-04-30T11:13:45.430Z,5.68
2023-04-30T11:14:48.815Z,5.82
2023-04-30T11:15:53.094Z,5.73
2023-04-30T11:16:57.383Z,5.87
2023-04-30T11:18:01.712Z,5.99
2023-04-30T11:19:05.984Z,6.16
2023-04-30T11:20:10.341Z,6.10
2023-04-30T11:21:14.549Z,6.26
2023-04-30T11:22:18.937Z,6.35
2023-04-30T11:23:32.194Z,6.36
2023-04-30T11:24:28.597Z,6.38
2023-04-30T11:25:31.771Z,6.37
2023-04-30T11:26:36.170Z,6.35
2023-04-30T11:27:40.401Z,6.46
2023-04-30T11:28:44.708Z,6.36
2023-04-30T11:29:48.965Z,6.31
2023-04-30T11:30:53.448Z,6.47
2023-04-30T11:31:57.660Z,6.72
2023-04-30T11:33:02.048Z,6.87
2023-04-30T11:35:33.694Z,7.01
2023-04-30T11:36:37.888Z,7.18
2023-04-30T11:37:42.235Z,7.41
2023-04-30T11:38:46.521Z,7.43
2023-04-30T11:39:50.753Z,7.40
2023-04-30T11:40:55.139Z,7.01
2023-04-30T11:41:59.366Z,6.68
2023-04-30T11:43:03.608Z,6.75
2023-04-30T11:44:07.950Z,6.69
2023-04-30T11:45:12.262Z,6.78
2023-04-30T11:46:16.549Z,6.79
2023-04-30T11:47:20.884Z,6.45
2023-04-30T11:48:25.152Z,6.37
2023-04-30T11:49:29.619Z,6.25
2023-04-30T11:50:33.824Z,6.54
2023-04-30T11:51:38.210Z,6.99
2023-04-30T11:52:42.559Z,7.17
2023-04-30T11:53:46.829Z,7.23
2023-04-30T11:54:51.251Z,7.10
2023-04-30T11:55:55.454Z,6.93
2023-04-30T11:56:59.777Z,6.95
2023-04-30T11:58:04.225Z,6.83
2023-04-30T11:59:08.552Z,6.91
2023-04-30T12:00:12.845Z,6.85
2023-04-30T12:01:17.077Z,7.11
2023-04-30T12:02:21.504Z,7.44
2023-04-30T12:03:25.774Z,7.61
2023-04-30T12:04:30.220Z,7.71
2023-04-30T12:05:34.518Z,7.67
2023-04-30T12:06:38.880Z,7.39
2023-04-30T12:07:43.160Z,7.17
2023-04-30T12:08:47.448Z,7.14
2023-04-30T12:09:51.850Z,6.86
2023-04-30T12:10:56.101Z,6.73
2023-04-30T12:12:00.426Z,6.86
2023-04-30T12:13:04.784Z,6.66
2023-04-30T12:14:09.042Z,6.88
2023-04-30T12:15:13.368Z,6.97
2023-04-30T12:16:17.819Z,6.84
2023-04-30T12:17:22.195Z,6.73
2023-04-30T12:18:26.476Z,6.90
2023-04-30T12:19:30.752Z,6.86
2023-04-30T12:20:35.076Z,6.95
2023-04-30T12:21:42.382Z,6.80
2023-04-30T12:22:59.824Z,6.84
2023-04-30T12:24:03.748Z,6.97
2023-04-30T12:25:07.281Z,7.17
2023-04-30T12:26:11.871Z,7.32
2023-04-30T12:27:16.145Z,7.50
2023-04-30T12:28:20.526Z,7.73
2023-04-30T12:29:24.889Z,7.79
2023-04-30T12:30:29.253Z,7.85
2023-04-30T12:31:33.590Z,7.57
2023-04-30T12:32:37.851Z,7.54
2023-04-30T12:33:42.254Z,7.46
2023-04-30T12:34:46.524Z,7.49
2023-04-30T12:35:50.856Z,7.47
2023-04-30T12:36:55.337Z,7.37
2023-04-30T12:37:59.583Z,7.12
2023-04-30T12:39:04.062Z,7.02
2023-04-30T12:40:08.308Z,6.84
2023-04-30T12:41:12.733Z,6.89
2023-04-30T12:42:17.013Z,7.12
2023-04-30T12:43:21.290Z,7.20
2023-04-30T12:44:25.693Z,7.31
2023-04-30T12:45:29.981Z,7.51
2023-04-30T12:46:34.510Z,7.65
2023-04-30T12:47:38.869Z,7.84
2023-04-30T12:48:43.215Z,7.71
2023-04-30T12:49:47.624Z,7.45
2023-04-30T12:50:52.010Z,7.34
2023-04-30T12:51:56.450Z,7.09
2023-04-30T12:53:00.811Z,7.13
2023-04-30T12:54:05.228Z,7.22
2023-04-30T12:55:09.638Z,7.24
2023-04-30T12:56:13.867Z,7.51
2023-04-30T12:57:18.258Z,7.61
2023-04-30T12:58:22.708Z,7.59
2023-04-30T12:59:27.101Z,7.68
2023-04-30T13:00:31.383Z,7.47
2023-04-30T13:01:35.775Z,7.28
2023-04-30T13:02:40.224Z,7.12
2023-04-30T13:03:44.510Z,7.11
2023-04-30T13:04:48.903Z,6.80
2023-04-30T13:05:53.180Z,6.72
2023-04-30T13:06:57.663Z,6.70
2023-04-30T13:08:04.955Z,6.80
2023-04-30T13:09:08.435Z,6.97
2023-04-30T13:10:12.704Z,7.06
2023-04-30T13:11:17.086Z,7.07
2023-04-30T13:12:21.579Z,7.09
2023-04-30T13:13:25.845Z,7.18
2023-04-30T13:14:30.136Z,7.03
2023-04-30T13:15:34.562Z,6.83
2023-04-30T13:16:40.335Z,6.69
2023-04-30T13:17:43.314Z,6.78
2023-04-30T13:18:47.553Z,6.74
2023-04-30T13:19:51.870Z,6.62
2023-04-30T13:20:56.105Z,6.47
2023-04-30T13:22:06.537Z,6.38
2023-04-30T13:23:09.575Z,6.44
2023-04-30T13:24:13.960Z,6.44
2023-04-30T13:25:18.254Z,6.40
2023-04-30T13:26:22.577Z,6.27
2023-04-30T13:27:26.890Z,6.20
2023-04-30T13:28:37.297Z,6.24
2023-04-30T13:29:40.221Z,6.21
2023-04-30T13:30:44.674Z,6.31
2023-04-30T13:31:49.204Z,6.32
2023-04-30T13:32:53.406Z,6.27
2023-04-30T13:33:57.709Z,6.40
2023-04-30T13:35:02.956Z,6.34
2023-04-30T13:36:06.883Z,6.16
2023-04-30T13:37:11.206Z,6.15
2023-04-30T13:38:15.556Z,6.14
2023-04-30T13:39:19.817Z,6.16
2023-04-30T13:40:24.123Z,6.13
2023-04-30T13:41:28.403Z,6.15
2023-04-30T13:42:32.652Z,5.98
2023-04-30T13:43:37.902Z,5.88
2023-04-30T13:44:41.344Z,5.89
2023-04-30T13:45:45.603Z,5.89
2023-04-30T13:46:49.933Z,5.87
2023-04-30T13:47:54.242Z,5.91
2023-04-30T13:49:01.630Z,5.96
2023-04-30T13:50:05.134Z,5.98
2023-04-30T13:51:09.359Z,5.99
2023-04-30T13:52:13.705Z,6.00
2023-04-30T13:53:18.028Z,6.01
2023-04-30T13:54:22.311Z,6.06
2023-04-30T13:55:26.584Z,6.03
2023-04-30T13:56:30.997Z,6.01
2023-04-30T13:57:35.322Z,6.01
2023-04-30T13:58:39.601Z,5.96
2023-04-30T13:59:43.919Z,5.96
2023-04-30T14:00:51.596Z,6.03
2023-04-30T14:01:54.919Z,6.01
2023-04-30T14:02:59.253Z,5.93
2023-04-30T14:04:03.443Z,5.80
2023-04-30T14:05:07.819Z,5.81
2023-04-30T14:06:12.183Z,5.86
2023-04-30T14:07:16.515Z,5.88
2023-04-30T14:08:23.174Z,5.85
2023-04-30T14:09:25.076Z,5.83
2023-04-30T14:10:29.473Z,5.77
2023-04-30T14:11:33.701Z,5.87
2023-04-30T14:12:37.988Z,5.95
2023-04-30T14:13:42.294Z,5.89
2023-04-30T14:14:46.614Z,5.86
2023-04-30T14:15:50.875Z,5.79
2023-04-30T14:16:55.256Z,5.82
2023-04-30T14:17:59.605Z,5.95
2023-04-30T14:19:03.890Z,5.99
2023-04-30T14:20:08.264Z,5.99
2023-04-30T14:21:12.535Z,6.03
2023-04-30T14:22:16.886Z,6.05
2023-04-30T14:23:21.218Z,5.98
2023-04-30T14:24:25.447Z,5.82
2023-04-30T14:25:29.845Z,5.71
2023-04-30T14:26:34.066Z,5.61
2023-04-30T14:27:38.446Z,5.54
2023-04-30T14:28:42.677Z,5.54
2023-04-30T14:29:46.939Z,5.61
2023-04-30T14:30:51.273Z,5.71
2023-04-30T14:31:55.564Z,5.80